Observation data for Goodlett on 09/13/2017      Previous  Date       Current Mesonet Observations  Soil Data  Daily Summary Page  Observations in Plain Language
KGDS 130505Z 10005KT 21/10 A2987 RMK A01 T02080103  RH  052%=      5-min Rain = 0
KGDS 130510Z 09005KT 20/10 A2987 RMK A01 T02020103  RH  054%=      5-min Rain = 0
KGDS 130515Z 09005KT 20/10 A2987 RMK A01 T01990102  RH  054%=      5-min Rain = 0
KGDS 130520Z 08005KT 20/10 A2987 RMK A01 T01990102  RH  054%=      5-min Rain = 0
KGDS 130525Z 08004KT 20/10 A2987 RMK A01 T02000103  RH  054%=      5-min Rain = 0
KGDS 130530Z 08004KT 20/11 A2987 RMK A01 T01990105  RH  055%=      5-min Rain = 0
KGDS 130535Z 07004KT 20/11 A2987 RMK A01 T01980105  RH  056%=      5-min Rain = 0
KGDS 130540Z 08005KT 19/11 A2987 RMK A01 T01940105  RH  057%=      5-min Rain = 0
KGDS 130545Z 08006KT 19/10 A2987 RMK A01 T01920104  RH  058%=      5-min Rain = 0
KGDS 130550Z 09007KT 19/10 A2987 RMK A01 T01920103  RH  057%=      5-min Rain = 0
KGDS 130555Z 09007KT 19/10 A2987 RMK A01 T01930104  RH  057%=      5-min Rain = 0
KGDS 130600Z 10006KT 20/10 A2987 RMK A01 T01950104  RH  057%=      5-min Rain = 0
KGDS 130605Z 10006KT 20/10 A2987 RMK A01 T01950104  RH  057%=      5-min Rain = 0
KGDS 130610Z 11005KT 19/10 A2987 RMK A01 T01940104  RH  057%=      5-min Rain = 0
KGDS 130615Z 12004KT 19/10 A2987 RMK A01 T01940104  RH  057%=      5-min Rain = 0
KGDS 130620Z 12004KT 19/10 A2987 RMK A01 T01940104  RH  057%=      5-min Rain = 0
KGDS 130625Z 13004KT 19/10 A2987 RMK A01 T01930102  RH  057%=      5-min Rain = 0
KGDS 130630Z 14003KT 19/10 A2987 RMK A01 T01930101  RH  056%=      5-min Rain = 0
KGDS 130635Z 17000KT 19/10 A2987 RMK A01 T01920098  RH  055%=      5-min Rain = 0
KGDS 130640Z 00000KT 19/10 A2987 RMK A01 T01910102  RH  057%=      5-min Rain = 0
KGDS 130645Z 15002KT 19/10 A2987 RMK A01 T01910102  RH  057%=      5-min Rain = 0
KGDS 130650Z 15003KT 19/10 A2987 RMK A01 T01920100  RH  056%=      5-min Rain = 0
KGDS 130655Z 14003KT 19/10 A2987 RMK A01 T01940099  RH  055%=      5-min Rain = 0
KGDS 130700Z 15002KT 19/10 A2987 RMK A01 T01940099  RH  055%=      5-min Rain = 0
KGDS 130705Z 17002KT 20/10 A2987 RMK A01 T01950098  RH  054%=      5-min Rain = 0
KGDS 130710Z 17000KT 19/10 A2987 RMK A01 T01940100  RH  055%=      5-min Rain = 0
KGDS 130715Z 00000KT 19/10 A2987 RMK A01 T01930100  RH  056%=      5-min Rain = 0
KGDS 130720Z 23000KT 19/10 A2987 RMK A01 T01920101  RH  056%=      5-min Rain = 0
KGDS 130725Z 23003KT 19/10 A2988 RMK A01 T01860103  RH  059%=      5-min Rain = 0
KGDS 130730Z 23002KT 18/10 A2987 RMK A01 T01830102  RH  060%=      5-min Rain = 0
KGDS 130735Z 22002KT 19/10 A2987 RMK A01 T01850102  RH  060%=      5-min Rain = 0
KGDS 130740Z 22002KT 19/10 A2987 RMK A01 T01860101  RH  059%=      5-min Rain = 0
KGDS 130745Z 23003KT 19/10 A2987 RMK A01 T01870101  RH  058%=      5-min Rain = 0
KGDS 130750Z 25003KT 18/10 A2987 RMK A01 T01800100  RH  060%=      5-min Rain = 0
KGDS 130755Z 25003KT 18/10 A2987 RMK A01 T01780101  RH  062%=      5-min Rain = 0
KGDS 130800Z 25003KT 18/10 A2987 RMK A01 T01780101  RH  061%=      5-min Rain = 0
KGDS 130805Z 25002KT 18/10 A2987 RMK A01 T01790100  RH  061%=      5-min Rain = 0
KGDS 130810Z 25002KT 18/10 A2987 RMK A01 T01800100  RH  060%=      5-min Rain = 0
KGDS 130815Z 25001KT 18/10 A2987 RMK A01 T01820100  RH  060%=      5-min Rain = 0
KGDS 130820Z 00000KT 18/10 A2987 RMK A01 T01810097  RH  059%=      5-min Rain = 0
KGDS 130825Z 00000KT 18/10 A2987 RMK A01 T01780096  RH  060%=      5-min Rain = 0
KGDS 130830Z 00000KT 18/10 A2987 RMK A01 T01800097  RH  059%=      5-min Rain = 0
KGDS 130835Z 00000KT 18/10 A2987 RMK A01 T01810096  RH  058%=      5-min Rain = 0
KGDS 130840Z 16000KT 18/10 A2987 RMK A01 T01800096  RH  059%=      5-min Rain = 0
KGDS 130845Z 00000KT 18/10 A2987 RMK A01 T01840096  RH  058%=      5-min Rain = 0
KGDS 130850Z 00000KT 18/10 A2987 RMK A01 T01790097  RH  060%=      5-min Rain = 0
KGDS 130855Z 00000KT 17/10 A2987 RMK A01 T01740099  RH  063%=      5-min Rain = 0
KGDS 130900Z 00000KT 17/10 A2987 RMK A01 T01720098  RH  063%=      5-min Rain = 0
KGDS 130905Z 27000KT 18/10 A2987 RMK A01 T01760100  RH  062%=      5-min Rain = 0
KGDS 130910Z 26000KT 18/10 A2987 RMK A01 T01800100  RH  060%=      5-min Rain = 0
KGDS 130915Z 26001KT 18/10 A2987 RMK A01 T01800101  RH  061%=      5-min Rain = 0
KGDS 130920Z 00000KT 18/10 A2987 RMK A01 T01790100  RH  061%=      5-min Rain = 0
KGDS 130925Z 00000KT 17/10 A2987 RMK A01 T01740100  RH  062%=      5-min Rain = 0
KGDS 130930Z 00000KT 17/10 A2987 RMK A01 T01710101  RH  064%=      5-min Rain = 0
KGDS 130935Z 00000KT 17/10 A2987 RMK A01 T01720102  RH  065%=      5-min Rain = 0
KGDS 130940Z 00000KT 17/10 A2987 RMK A01 T01730102  RH  064%=      5-min Rain = 0
KGDS 130945Z 00000KT 18/10 A2987 RMK A01 T01750101  RH  063%=      5-min Rain = 0
KGDS 130950Z 00000KT 17/10 A2987 RMK A01 T01740101  RH  063%=      5-min Rain = 0
KGDS 130955Z 00000KT 18/10 A2987 RMK A01 T01760102  RH  063%=      5-min Rain = 0
KGDS 131000Z 00000KT 18/10 A2987 RMK A01 T01810100  RH  060%=      5-min Rain = 0
KGDS 131005Z 00000KT 18/10 A2987 RMK A01 T01810099  RH  060%=      5-min Rain = 0
KGDS 131010Z 00000KT 18/10 A2987 RMK A01 T01810098  RH  059%=      5-min Rain = 0
KGDS 131015Z 00000KT 18/10 A2987 RMK A01 T01810097  RH  059%=      5-min Rain = 0
KGDS 131020Z 00000KT 18/10 A2987 RMK A01 T01780097  RH  060%=      5-min Rain = 0
KGDS 131025Z 00000KT 18/10 A2987 RMK A01 T01790098  RH  060%=      5-min Rain = 0
KGDS 131030Z 00000KT 18/10 A2987 RMK A01 T01760097  RH  061%=      5-min Rain = 0
KGDS 131035Z 00000KT 17/10 A2987 RMK A01 T01730098  RH  062%=      5-min Rain = 0
KGDS 131040Z 00000KT 17/10 A2987 RMK A01 T01710098  RH  063%=      5-min Rain = 0
KGDS 131045Z 00000KT 17/10 A2987 RMK A01 T01700098  RH  064%=      5-min Rain = 0
KGDS 131050Z 00000KT 17/10 A2987 RMK A01 T01720099  RH  063%=      5-min Rain = 0
KGDS 131055Z 00000KT 17/10 A2987 RMK A01 T01710098  RH  063%=      5-min Rain = 0
KGDS 131100Z 00000KT 17/10 A2987 RMK A01 T01720098  RH  063%=      5-min Rain = 0
KGDS 131105Z 00000KT 17/10 A2987 RMK A01 T01730098  RH  062%=      5-min Rain = 0
KGDS 131110Z 00000KT 17/10 A2987 RMK A01 T01740098  RH  062%=      5-min Rain = 0
KGDS 131115Z 00000KT 17/10 A2987 RMK A01 T01720097  RH  062%=      5-min Rain = 0
KGDS 131120Z 00000KT 17/10 A2987 RMK A01 T01700098  RH  063%=      5-min Rain = 0
KGDS 131125Z 00000KT 17/10 A2987 RMK A01 T01690097  RH  064%=      5-min Rain = 0
KGDS 131130Z 00000KT 16/10 A2987 RMK A01 T01640095  RH  065%=      5-min Rain = 0
KGDS 131135Z 00000KT 16/10 A2987 RMK A01 T01600095  RH  066%=      5-min Rain = 0
KGDS 131140Z 00000KT 16/10 A2987 RMK A01 T01590096  RH  067%=      5-min Rain = 0
KGDS 131145Z 00000KT 16/10 A2987 RMK A01 T01580097  RH  068%=      5-min Rain = 0
KGDS 131150Z 00000KT 16/10 A2987 RMK A01 T01580100  RH  070%=      5-min Rain = 0
KGDS 131155Z 00000KT 16/10 A2987 RMK A01 T01600101  RH  069%=      5-min Rain = 0
KGDS 131200Z 00000KT 16/10 A2987 RMK A01 T01640100  RH  067%=      5-min Rain = 0
KGDS 131205Z 00000KT 17/10 A2987 RMK A01 T01680099  RH  065%=      5-min Rain = 0
KGDS 131210Z 07001KT 17/10 A2987 RMK A01 T01650098  RH  066%=      5-min Rain = 0
KGDS 131215Z 07003KT 16/10 A2987 RMK A01 T01570098  RH  069%=      5-min Rain = 0
KGDS 131220Z 06005KT 16/10 A2987 RMK A01 T01550098  RH  070%=      5-min Rain = 0
KGDS 131225Z 04004KT 15/10 A2988 RMK A01 T01540098  RH  071%=      5-min Rain = 0
KGDS 131230Z 04004KT 15/10 A2988 RMK A01 T01480099  RH  073%=      5-min Rain = 0
KGDS 131235Z 04004KT 14/10 A2988 RMK A01 T01430099  RH  076%=      5-min Rain = 0
KGDS 131240Z 05005KT 14/10 A2988 RMK A01 T01410100  RH  078%=      5-min Rain = 0
KGDS 131245Z 05006KT 14/10 A2988 RMK A01 T01430102  RH  078%=      5-min Rain = 0
KGDS 131250Z 05006KT 14/10 A2988 RMK A01 T01430102  RH  078%=      5-min Rain = 0
KGDS 131255Z 06006KT 15/10 A2988 RMK A01 T01450103  RH  077%=      5-min Rain = 0
KGDS 131300Z 06005KT 15/10 A2988 RMK A01 T01490104  RH  075%=      5-min Rain = 0
KGDS 131305Z 06005KT 16/10 A2988 RMK A01 T01550104  RH  073%=      5-min Rain = 0
KGDS 131310Z 06005KT 16/10 A2988 RMK A01 T01590104  RH  071%=      5-min Rain = 0
KGDS 131315Z 06005KT 16/11 A2988 RMK A01 T01620105  RH  070%=      5-min Rain = 0
KGDS 131320Z 06006KT 16/11 A2988 RMK A01 T01640106  RH  070%=      5-min Rain = 0
KGDS 131325Z 05005KT 17/11 A2988 RMK A01 T01660107  RH  069%=      5-min Rain = 0
KGDS 131330Z 04005KT 17/11 A2988 RMK A01 T01690108  RH  069%=      5-min Rain = 0
KGDS 131335Z 04004KT 17/11 A2989 RMK A01 T01710109  RH  068%=      5-min Rain = 0
KGDS 131340Z 04004KT 18/11 A2989 RMK A01 T01750110  RH  067%=      5-min Rain = 0
KGDS 131345Z 04004KT 18/11 A2989 RMK A01 T01790110  RH  065%=      5-min Rain = 0
KGDS 131350Z 04004KT 18/11 A2989 RMK A01 T01830110  RH  064%=      5-min Rain = 0
KGDS 131355Z 04003KT 19/11 A2989 RMK A01 T01860110  RH  062%=      5-min Rain = 0
KGDS 131400Z 05002KT 19/11 A2989 RMK A01 T01910111  RH  061%=      5-min Rain = 0
KGDS 131405Z 06003KT 19/11 A2989 RMK A01 T01940110  RH  059%=      5-min Rain = 0
KGDS 131410Z 07003KT 20/11 A2989 RMK A01 T01990111  RH  058%=      5-min Rain = 0
KGDS 131415Z 08001KT 20/11 A2989 RMK A01 T02030109  RH  056%=      5-min Rain = 0
KGDS 131420Z 18000KT 21/11 A2989 RMK A01 T02110111  RH  054%=      5-min Rain = 0
KGDS 131425Z 12000KT 22/11 A2989 RMK A01 T02190109  RH  051%=      5-min Rain = 0
KGDS 131430Z 15000KT 23/11 A2989 RMK A01 T02260109  RH  048%=      5-min Rain = 0
KGDS 131435Z 14002KT 23/11 A2989 RMK A01 T02280105  RH  046%=      5-min Rain = 0
KGDS 131440Z 16002KT 23/10 A2989 RMK A01 T02280104  RH  046%=      5-min Rain = 0
KGDS 131445Z 17002KT 23/11 A2989 RMK A01 T02280105  RH  046%=      5-min Rain = 0
KGDS 131450Z 16001KT 23/10 A2989 RMK A01 T02330104  RH  045%=      5-min Rain = 0
KGDS 131455Z 20002KT 24/10 A2989 RMK A01 T02360103  RH  044%=      5-min Rain = 0
KGDS 131500Z 19002KT 24/10 A2989 RMK A01 T02360104  RH  044%=      5-min Rain = 0
KGDS 131505Z 20002KT 24/10 A2989 RMK A01 T02390104  RH  043%=      5-min Rain = 0
KGDS 131510Z 20002KT 24/10 A2989 RMK A01 T02430101  RH  041%=      5-min Rain = 0
KGDS 131515Z 20002KT 25/10 A2989 RMK A01 T02460102  RH  041%=      5-min Rain = 0
KGDS 131520Z 21003KT 25/10 A2989 RMK A01 T02490101  RH  040%=      5-min Rain = 0
KGDS 131525Z 21003KT 25/10 A2989 RMK A01 T02500099  RH  039%=      5-min Rain = 0
KGDS 131530Z 20004KT 25/10 A2989 RMK A01 T02520100  RH  039%=      5-min Rain = 0
KGDS 131535Z 20004KT 25/10 A2989 RMK A01 T02540097  RH  038%=      5-min Rain = 0
KGDS 131540Z 19003KT 26/10 A2989 RMK A01 T02570100  RH  038%=      5-min Rain = 0
KGDS 131545Z 20003KT 26/10 A2989 RMK A01 T02600103  RH  038%=      5-min Rain = 0
KGDS 131550Z 21004KT 26/10 A2989 RMK A01 T02600103  RH  038%=      5-min Rain = 0
KGDS 131555Z 19003KT 26/10 A2989 RMK A01 T02630102  RH  037%=      5-min Rain = 0
KGDS 131600Z 17002KT 27/10 A2989 RMK A01 T02650101  RH  036%=      5-min Rain = 0
KGDS 131605Z 19004KT 27/10 A2989 RMK A01 T02660099  RH  035%=      5-min Rain = 0
KGDS 131610Z 22004KT 27/10 A2989 RMK A01 T02670096  RH  035%=      5-min Rain = 0
KGDS 131615Z 19002KT 27/10 A2989 RMK A01 T02700096  RH  034%=      5-min Rain = 0
KGDS 131620Z 17002KT 27/09 A2989 RMK A01 T02740094  RH  033%=      5-min Rain = 0
KGDS 131625Z 20003KT 28/09 A2989 RMK A01 T02770091  RH  032%=      5-min Rain = 0
KGDS 131630Z 20005KT 28/09 A2988 RMK A01 T02770090  RH  031%=      5-min Rain = 0
KGDS 131635Z 13005KT 28/09 A2988 RMK A01 T02790085  RH  030%=      5-min Rain = 0
KGDS 131640Z 13004KT 28/09 A2988 RMK A01 T02820085  RH  029%=      5-min Rain = 0
KGDS 131645Z 16005KT 29/08 A2988 RMK A01 T02860079  RH  028%=      5-min Rain = 0
KGDS 131650Z 15004KT 29/08 A2988 RMK A01 T02880082  RH  028%=      5-min Rain = 0
KGDS 131655Z 14002KT 29/08 A2988 RMK A01 T02860079  RH  028%=      5-min Rain = 0
KGDS 131700Z 17005KT 29/08 A2988 RMK A01 T02880082  RH  028%=      5-min Rain = 0
KGDS 131705Z 13003KT 29/08 A2987 RMK A01 T02880084  RH  028%=      5-min Rain = 0
KGDS 131710Z 22002G7KT 29/09 A2987 RMK A01 T02860086  RH  029%=      5-min Rain = 0
KGDS 131715Z 15003KT 29/09 A2987 RMK A01 T02930092  RH  029%=      5-min Rain = 0
KGDS 131720Z 17003G9KT 30/09 A2987 RMK A01 T02960091  RH  028%=      5-min Rain = 0
KGDS 131725Z 22003KT 30/09 A2987 RMK A01 T02950090  RH  028%=      5-min Rain = 0
KGDS 131730Z 20003KT 30/09 A2986 RMK A01 T02980093  RH  028%=      5-min Rain = 0
KGDS 131735Z 15002KT 30/10 A2986 RMK A01 T03030095  RH  028%=      5-min Rain = 0
KGDS 131740Z 17004KT 31/10 A2986 RMK A01 T03050095  RH  028%=      5-min Rain = 0
KGDS 131745Z 22001KT 30/09 A2985 RMK A01 T03020090  RH  027%=      5-min Rain = 0
KGDS 131750Z 19003KT 30/09 A2985 RMK A01 T03020092  RH  027%=      5-min Rain = 0
KGDS 131755Z 17002G10KT 31/09 A2985 RMK A01 T03070093  RH  027%=      5-min Rain = 0
KGDS 131800Z 16005KT 31/09 A2985 RMK A01 T03050091  RH  027%=      5-min Rain = 0
KGDS 131805Z 09002KT 31/09 A2985 RMK A01 T03060092  RH  027%=      5-min Rain = 0
KGDS 131810Z 12004KT 31/09 A2985 RMK A01 T03100092  RH  026%=      5-min Rain = 0
KGDS 131815Z 10003KT 31/09 A2984 RMK A01 T03070090  RH  026%=      5-min Rain = 0
KGDS 131820Z 06002KT 31/09 A2984 RMK A01 T03090090  RH  026%=      5-min Rain = 0
KGDS 131825Z 19005KT 31/09 A2984 RMK A01 T03130088  RH  025%=      5-min Rain = 0
KGDS 131830Z 18004G9KT 31/09 A2984 RMK A01 T03130088  RH  025%=      5-min Rain = 0
KGDS 131835Z 20005KT 31/09 A2983 RMK A01 T03130087  RH  025%=      5-min Rain = 0
KGDS 131840Z 17005KT 32/09 A2983 RMK A01 T03170088  RH  025%=      5-min Rain = 0
KGDS 131845Z 20003KT 32/09 A2983 RMK A01 T03190087  RH  024%=      5-min Rain = 0
KGDS 131850Z 19002KT 32/09 A2983 RMK A01 T03210087  RH  024%=      5-min Rain = 0
KGDS 131855Z 23003KT 33/09 A2982 RMK A01 T03270088  RH  023%=      5-min Rain = 0
KGDS 131900Z 24004KT 33/09 A2982 RMK A01 T03250086  RH  023%=      5-min Rain = 0
KGDS 131905Z 16008KT 33/09 A2982 RMK A01 T03280088  RH  023%=      5-min Rain = 0
KGDS 131910Z 17005KT 33/09 A2982 RMK A01 T03270086  RH  023%=      5-min Rain = 0
KGDS 131915Z 16006KT 33/09 A2982 RMK A01 T03260085  RH  023%=      5-min Rain = 0
KGDS 131920Z 14003KT 33/09 A2981 RMK A01 T03270085  RH  023%=      5-min Rain = 0
KGDS 131925Z 04001KT 33/09 A2981 RMK A01 T03280085  RH  023%=      5-min Rain = 0
KGDS 131930Z 13005G12KT 33/09 A2981 RMK A01 T03330088  RH  022%=      5-min Rain = 0
KGDS 131935Z 10006G13KT 33/09 A2981 RMK A01 T03310090  RH  023%=      5-min Rain = 0
KGDS 131940Z 13007KT 33/09 A298 RMK A01 T03320089  RH  023%=      5-min Rain = 0
KGDS 131945Z 12003KT 33/09 A298 RMK A01 T03310087  RH  023%=      5-min Rain = 0
KGDS 131950Z 18005KT 33/09 A298 RMK A01 T03330088  RH  022%=      5-min Rain = 0
KGDS 131955Z 19003KT 33/09 A298 RMK A01 T03320089  RH  023%=      5-min Rain = 0
KGDS 132000Z 13007KT 34/09 A298 RMK A01 T03360089  RH  022%=      5-min Rain = 0
KGDS 132005Z 23002KT 33/09 A2979 RMK A01 T03320088  RH  022%=      5-min Rain = 0
KGDS 132010Z 13006KT 34/09 A2979 RMK A01 T03390090  RH  022%=      5-min Rain = 0
KGDS 132015Z 14005KT 34/09 A2979 RMK A01 T03350090  RH  023%=      5-min Rain = 0
KGDS 132020Z 15007KT 34/09 A2979 RMK A01 T03370090  RH  022%=      5-min Rain = 0
KGDS 132025Z 16005KT 34/09 A2979 RMK A01 T03370089  RH  022%=      5-min Rain = 0
KGDS 132030Z 13004KT 34/09 A2979 RMK A01 T03360089  RH  022%=      5-min Rain = 0
KGDS 132035Z 28002KT 34/09 A2979 RMK A01 T03390087  RH  022%=      5-min Rain = 0
KGDS 132040Z 09004G10KT 34/09 A2978 RMK A01 T03390089  RH  022%=      5-min Rain = 0
KGDS 132045Z 13005G11KT 34/09 A2979 RMK A01 T03400090  RH  022%=      5-min Rain = 0
KGDS 132050Z 14008KT 34/09 A2978 RMK A01 T03390091  RH  022%=      5-min Rain = 0
KGDS 132055Z 13004KT 34/09 A2978 RMK A01 T03390090  RH  022%=      5-min Rain = 0
KGDS 132100Z 13004KT 34/09 A2978 RMK A01 T03390089  RH  022%=      5-min Rain = 0
KGDS 132105Z 10006G11KT 34/09 A2978 RMK A01 T03400091  RH  022%=      5-min Rain = 0
KGDS 132110Z 17005KT 34/09 A2978 RMK A01 T03410090  RH  022%=      5-min Rain = 0
KGDS 132115Z 13008KT 34/09 A2978 RMK A01 T03420091  RH  022%=      5-min Rain = 0
KGDS 132120Z 14005KT 34/09 A2977 RMK A01 T03420089  RH  022%=      5-min Rain = 0
KGDS 132125Z 11004KT 34/09 A2977 RMK A01 T03430090  RH  022%=      5-min Rain = 0
KGDS 132130Z 10002KT 34/09 A2977 RMK A01 T03440088  RH  021%=      5-min Rain = 0
KGDS 132135Z 13004KT 34/09 A2977 RMK A01 T03430089  RH  021%=      5-min Rain = 0
KGDS 132140Z 12005G10KT 34/09 A2977 RMK A01 T03430088  RH  021%=      5-min Rain = 0
KGDS 132145Z 10005KT 34/09 A2977 RMK A01 T03420089  RH  021%=      5-min Rain = 0
KGDS 132150Z 09006G11KT 34/09 A2977 RMK A01 T03410088  RH  021%=      5-min Rain = 0
KGDS 132155Z 15006KT 34/09 A2976 RMK A01 T03400087  RH  022%=      5-min Rain = 0
KGDS 132200Z 17004G9KT 34/09 A2976 RMK A01 T03430089  RH  021%=      5-min Rain = 0
KGDS 132205Z 13006KT 34/09 A2976 RMK A01 T03430089  RH  021%=      5-min Rain = 0
KGDS 132210Z 14004G9KT 35/09 A2976 RMK A01 T03450089  RH  021%=      5-min Rain = 0
KGDS 132215Z 13006KT 34/09 A2976 RMK A01 T03440088  RH  021%=      5-min Rain = 0
KGDS 132220Z 13007KT 34/09 A2976 RMK A01 T03420088  RH  021%=      5-min Rain = 0
KGDS 132225Z 11007G13KT 34/09 A2976 RMK A01 T03420088  RH  021%=      5-min Rain = 0
KGDS 132230Z 12008G13KT 34/09 A2976 RMK A01 T03400088  RH  022%=      5-min Rain = 0
KGDS 132235Z 12005KT 34/09 A2976 RMK A01 T03400088  RH  022%=      5-min Rain = 0
KGDS 132240Z 10007G12KT 34/09 A2976 RMK A01 T03410089  RH  022%=      5-min Rain = 0
KGDS 132245Z 12009G14KT 34/09 A2976 RMK A01 T03400087  RH  022%=      5-min Rain = 0
KGDS 132250Z 12008KT 34/09 A2976 RMK A01 T03390089  RH  022%=      5-min Rain = 0
KGDS 132255Z 13007KT 34/09 A2976 RMK A01 T03390088  RH  022%=      5-min Rain = 0
KGDS 132300Z 11008KT 34/09 A2976 RMK A01 T03380089  RH  022%=      5-min Rain = 0
KGDS 132305Z 11008G13KT 34/09 A2976 RMK A01 T03370090  RH  022%=      5-min Rain = 0
KGDS 132310Z 12009G14KT 34/09 A2976 RMK A01 T03360088  RH  022%=      5-min Rain = 0
KGDS 132315Z 11009KT 34/09 A2976 RMK A01 T03360090  RH  022%=      5-min Rain = 0
KGDS 132320Z 13010KT 33/09 A2976 RMK A01 T03340088  RH  022%=      5-min Rain = 0
KGDS 132325Z 11011KT 33/09 A2976 RMK A01 T03310089  RH  023%=      5-min Rain = 0
KGDS 132330Z 12010KT 33/09 A2976 RMK A01 T03310089  RH  023%=      5-min Rain = 0
KGDS 132335Z 11009KT 33/09 A2976 RMK A01 T03300089  RH  023%=      5-min Rain = 0
KGDS 132340Z 11010KT 33/09 A2976 RMK A01 T03280089  RH  023%=      5-min Rain = 0
KGDS 132345Z 11011KT 33/09 A2976 RMK A01 T03260089  RH  023%=      5-min Rain = 0
KGDS 132350Z 11011KT 33/09 A2976 RMK A01 T03250088  RH  024%=      5-min Rain = 0
KGDS 132355Z 11010KT 32/09 A2976 RMK A01 T03230089  RH  024%=      5-min Rain = 0
KGDS 140000Z 11010KT 32/09 A2976 RMK A01 T03210090  RH  024%=      5-min Rain = 0
KGDS 140005Z 12010KT 32/09 A2976 RMK A01 T03200089  RH  024%=      5-min Rain = 0
KGDS 140010Z 11009KT 32/09 A2976 RMK A01 T03170089  RH  025%=      5-min Rain = 0
KGDS 140015Z 11009KT 32/09 A2976 RMK A01 T03150090  RH  025%=      5-min Rain = 0
KGDS 140020Z 11008KT 31/09 A2976 RMK A01 T03130090  RH  026%=      5-min Rain = 0
KGDS 140025Z 12008KT 31/09 A2976 RMK A01 T03100091  RH  026%=      5-min Rain = 0
KGDS 140030Z 11007KT 31/09 A2976 RMK A01 T03060092  RH  027%=      5-min Rain = 0
KGDS 140035Z 11007KT 30/09 A2976 RMK A01 T03030091  RH  027%=      5-min Rain = 0
KGDS 140040Z 11007KT 30/09 A2976 RMK A01 T02990091  RH  028%=      5-min Rain = 0
KGDS 140045Z 11007KT 30/09 A2976 RMK A01 T02950091  RH  028%=      5-min Rain = 0
KGDS 140050Z 11007KT 29/09 A2976 RMK A01 T02890091  RH  030%=      5-min Rain = 0
KGDS 140055Z 11007KT 28/09 A2976 RMK A01 T02840091  RH  030%=      5-min Rain = 0
KGDS 140100Z 11007KT 28/09 A2976 RMK A01 T02800091  RH  031%=      5-min Rain = 0
KGDS 140105Z 11007KT 28/09 A2976 RMK A01 T02770091  RH  032%=      5-min Rain = 0
KGDS 140110Z 11007KT 28/09 A2976 RMK A01 T02750091  RH  032%=      5-min Rain = 0
KGDS 140115Z 11008KT 27/09 A2976 RMK A01 T02730090  RH  032%=      5-min Rain = 0
KGDS 140120Z 11008KT 27/09 A2976 RMK A01 T02720090  RH  032%=      5-min Rain = 0
KGDS 140125Z 11008KT 27/09 A2976 RMK A01 T02690090  RH  033%=      5-min Rain = 0
KGDS 140130Z 11008KT 27/09 A2977 RMK A01 T02670090  RH  033%=      5-min Rain = 0
KGDS 140135Z 11008KT 27/09 A2977 RMK A01 T02660090  RH  034%=      5-min Rain = 0
KGDS 140140Z 10008KT 26/09 A2977 RMK A01 T02640090  RH  034%=      5-min Rain = 0
KGDS 140145Z 10008KT 26/09 A2977 RMK A01 T02630090  RH  034%=      5-min Rain = 0
KGDS 140150Z 10008KT 26/09 A2977 RMK A01 T02610090  RH  035%=      5-min Rain = 0
KGDS 140155Z 10008KT 26/09 A2978 RMK A01 T02590091  RH  035%=      5-min Rain = 0
KGDS 140200Z 10008KT 26/09 A2978 RMK A01 T02600091  RH  035%=      5-min Rain = 0
KGDS 140205Z 11008KT 26/09 A2978 RMK A01 T02590092  RH  035%=      5-min Rain = 0
KGDS 140210Z 11009KT 26/09 A2978 RMK A01 T02580092  RH  036%=      5-min Rain = 0
KGDS 140215Z 11008KT 26/09 A2978 RMK A01 T02570093  RH  036%=      5-min Rain = 0
KGDS 140220Z 11008KT 26/09 A2978 RMK A01 T02550093  RH  037%=      5-min Rain = 0
KGDS 140225Z 11008KT 25/09 A2978 RMK A01 T02530093  RH  037%=      5-min Rain = 0
KGDS 140230Z 11008KT 25/09 A2978 RMK A01 T02530092  RH  037%=      5-min Rain = 0
KGDS 140235Z 10008KT 25/09 A2978 RMK A01 T02500093  RH  037%=      5-min Rain = 0
KGDS 140240Z 09008KT 25/09 A2979 RMK A01 T02490093  RH  038%=      5-min Rain = 0
KGDS 140245Z 10008KT 25/09 A2979 RMK A01 T02490093  RH  038%=      5-min Rain = 0
KGDS 140250Z 10009KT 25/09 A2979 RMK A01 T02510094  RH  037%=      5-min Rain = 0
KGDS 140255Z 10008KT 25/09 A2979 RMK A01 T02500094  RH  038%=      5-min Rain = 0
KGDS 140300Z 10008KT 25/09 A2979 RMK A01 T02480094  RH  038%=      5-min Rain = 0
KGDS 140305Z 10008KT 25/10 A2979 RMK A01 T02460095  RH  039%=      5-min Rain = 0
KGDS 140310Z 11008KT 24/10 A2979 RMK A01 T02440095  RH  040%=      5-min Rain = 0
KGDS 140315Z 10007KT 24/10 A2979 RMK A01 T02410096  RH  040%=      5-min Rain = 0
KGDS 140320Z 11007KT 24/10 A298 RMK A01 T02390096  RH  041%=      5-min Rain = 0
KGDS 140325Z 11007KT 24/10 A298 RMK A01 T02380096  RH  041%=      5-min Rain = 0
KGDS 140330Z 11007KT 24/10 A298 RMK A01 T02380095  RH  041%=      5-min Rain = 0
KGDS 140335Z 11008KT 24/09 A298 RMK A01 T02380094  RH  041%=      5-min Rain = 0
KGDS 140340Z 12007KT 24/09 A298 RMK A01 T02380093  RH  041%=      5-min Rain = 0
KGDS 140345Z 11007KT 24/09 A298 RMK A01 T02360092  RH  041%=      5-min Rain = 0
KGDS 140350Z 11007KT 24/09 A298 RMK A01 T02350090  RH  040%=      5-min Rain = 0
KGDS 140355Z 11007KT 23/09 A298 RMK A01 T02340090  RH  040%=      5-min Rain = 0
KGDS 140400Z 11006KT 23/09 A298 RMK A01 T02320089  RH  041%=      5-min Rain = 0
KGDS 140405Z 11006KT 23/09 A298 RMK A01 T02290088  RH  041%=      5-min Rain = 0
KGDS 140410Z 10007KT 23/09 A298 RMK A01 T02260089  RH  042%=      5-min Rain = 0
KGDS 140415Z 10007KT 22/09 A298 RMK A01 T02240088  RH  043%=      5-min Rain = 0
KGDS 140420Z 10007KT 22/09 A298 RMK A01 T02240085  RH  042%=      5-min Rain = 0
KGDS 140425Z 10007KT 23/08 A298 RMK A01 T02260083  RH  040%=      5-min Rain = 0
KGDS 140430Z 10007KT 23/08 A298 RMK A01 T02270080  RH  039%=      5-min Rain = 0
KGDS 140435Z 10007KT 23/08 A298 RMK A01 T02280078  RH  039%=      5-min Rain = 0
KGDS 140440Z 11007KT 23/08 A298 RMK A01 T02270077  RH  039%=      5-min Rain = 0
KGDS 140445Z 11007KT 23/08 A298 RMK A01 T02270077  RH  039%=      5-min Rain = 0
KGDS 140450Z 11007KT 23/08 A298 RMK A01 T02270076  RH  038%=      5-min Rain = 0
KGDS 140455Z 11008KT 23/08 A298 RMK A01 T02260076  RH  039%=      5-min Rain = 0
KGDS 140500Z 11008KT 23/08 A298 RMK A01 T02250075  RH  039%=      5-min Rain = 0

Page generated in 0.4991 seconds.